Time;durP1;ratioP1;P1;durP2;ratioP2;P2;SDS_P1;SDS_P2;PMS_P1;PMS_P2;Temp;Humidity;BMP_temperature;BMP_pressure;BME280_temperature;BME280_humidity;BME280_pressure;Samples;Min_cycle;Max_cycle;Signal;HPM_P1;HPM_P2
2022/02/13 00:01:13;;;;;;;10.63;3.95;;;;;;;5.83;47.17;101849.22;4988878;28;114018;-65
2022/02/13 00:03:40;;;;;;;8.52;3.72;;;;;;;5.78;47.64;101845.75;4991180;28;124579;-65
2022/02/13 00:06:07;;;;;;;7.50;3.72;;;;;;;5.73;47.52;101837.06;4991921;28;123958;-65
2022/02/13 00:08:35;;;;;;;8.02;3.60;;;;;;;5.69;47.51;101845.81;4992084;28;114708;-64
2022/02/13 00:11:17;;;;;;;7.32;3.78;;;;;;;5.64;47.90;101848.50;4990002;28;114269;-65
2022/02/13 00:13:46;;;;;;;11.32;4.13;;;;;;;5.61;47.64;101844.16;4990553;28;124551;-64
2022/02/13 00:16:14;;;;;;;9.50;4.13;;;;;;;5.59;47.93;101845.91;4989220;28;123693;-64
2022/02/13 00:18:43;;;;;;;10.02;4.20;;;;;;;5.57;47.86;101847.66;4989526;28;114111;-65
2022/02/13 00:21:30;;;;;;;10.70;4.03;;;;;;;5.55;47.81;101844.19;4989746;28;113890;-65
2022/02/13 00:23:58;;;;;;;8.63;3.92;;;;;;;5.53;47.88;101840.69;4991910;28;124009;-65
2022/02/13 00:26:25;;;;;;;9.02;4.13;;;;;;;5.52;48.18;101838.97;4990829;28;124033;-65
2022/02/13 00:28:52;;;;;;;7.78;3.85;;;;;;;5.48;48.00;101842.47;4990378;28;115216;-65
2022/02/13 00:31:21;;;;;;;9.57;3.55;;;;;;;5.47;47.87;101840.75;4988381;28;115290;-65
2022/02/13 00:33:48;;;;;;;11.32;3.97;;;;;;;5.45;48.10;101839.91;4990508;28;122974;-65
2022/02/13 00:36:15;;;;;;;13.00;3.90;;;;;;;5.43;48.13;101844.31;4989247;28;124026;-65
2022/02/13 00:38:42;;;;;;;8.45;3.75;;;;;;;5.41;48.26;101832.94;4991262;28;113099;-65
2022/02/13 00:41:09;;;;;;;8.77;4.03;;;;;;;5.41;48.21;101835.56;4990536;28;113461;-65
2022/02/13 00:43:36;;;;;;;10.70;4.10;;;;;;;5.38;48.32;101825.06;4990828;28;123405;-65
2022/02/13 00:46:04;;;;;;;10.18;3.80;;;;;;;5.38;48.22;101835.56;4992201;28;124015;-65
2022/02/13 00:48:31;;;;;;;10.32;3.92;;;;;;;5.37;48.15;101833.81;4989901;28;114924;-65
2022/02/13 00:50:58;;;;;;;9.00;4.03;;;;;;;5.35;48.36;101840.84;4989804;28;113144;-65
2022/02/13 00:53:26;;;;;;;9.13;4.03;;;;;;;5.33;48.27;101842.59;4988956;28;124352;-65
2022/02/13 00:55:53;;;;;;;9.65;3.83;;;;;;;5.29;48.20;101846.13;4990833;28;124383;-65
2022/02/13 00:58:22;;;;;;;10.98;4.25;;;;;;;5.28;48.29;101839.16;4988978;28;114614;-65
2022/02/13 01:00:52;;;;;;;7.15;3.72;;;;;;;5.24;48.57;101828.66;4986944;28;114094;-65
2022/02/13 01:03:19;;;;;;;8.90;4.20;;;;;;;5.25;48.40;101832.16;4989526;28;123497;-65
2022/02/13 01:05:46;;;;;;;7.15;3.90;;;;;;;5.23;48.46;101832.16;4988781;28;123904;-65
2022/02/13 01:08:13;;;;;;;10.10;3.80;;;;;;;5.22;48.29;101825.19;4989157;28;114067;-65
2022/02/13 01:10:41;;;;;;;6.43;3.65;;;;;;;5.22;48.47;101825.19;4990709;28;114005;-65
2022/02/13 01:13:08;;;;;;;9.10;4.10;;;;;;;5.19;48.25;101819.94;4989397;28;122907;-65
2022/02/13 01:15:35;;;;;;;9.40;4.05;;;;;;;5.17;48.55;101816.44;4988312;28;124314;-65
2022/02/13 01:18:02;;;;;;;9.85;4.05;;;;;;;5.15;48.69;101812.97;4988180;28;115282;-65
2022/02/13 01:20:30;;;;;;;9.57;3.75;;;;;;;5.12;48.68;101807.72;4989902;28;115016;-65
2022/02/13 01:22:57;;;;;;;8.15;3.78;;;;;;;5.11;48.80;101806.00;4989938;28;123868;-65
2022/02/13 01:25:24;;;;;;;7.97;3.72;;;;;;;5.10;48.83;101806.88;4988271;28;124517;-65
2022/02/13 01:27:51;;;;;;;8.07;3.53;;;;;;;5.10;48.62;101803.38;4988428;28;114001;-65
2022/02/13 01:30:19;;;;;;;9.80;3.80;;;;;;;5.09;48.79;101789.38;4987114;28;114309;-65
2022/02/13 01:32:46;;;;;;;10.65;4.20;;;;;;;5.07;48.78;101778.03;4989168;28;124070;-65
2022/02/13 01:35:13;;;;;;;6.57;3.50;;;;;;;5.05;48.91;101779.78;4988205;28;124166;-65
2022/02/13 01:37:41;;;;;;;10.10;3.88;;;;;;;5.05;48.98;101779.78;4988533;28;114902;-65
2022/02/13 01:40:09;;;;;;;6.55;3.60;;;;;;;5.04;48.76;101775.41;4989642;28;114115;-65
2022/02/13 01:42:36;;;;;;;9.90;4.20;;;;;;;5.03;48.88;101771.06;4987917;28;123554;-65
2022/02/13 01:45:05;;;;;;;8.32;3.78;;;;;;;5.02;48.99;101758.81;4991564;27;124092;-65
2022/02/13 01:47:36;;;;;;;9.75;3.83;;;;;;;5.02;49.17;101756.19;4989700;28;115025;-65
2022/02/13 01:50:07;;;;;;;7.78;3.65;;;;;;;5.02;49.12;101753.56;4989466;28;114131;-65
2022/02/13 01:52:38;;;;;;;9.57;3.53;;;;;;;5.02;49.15;101754.41;4988467;28;124240;-65
2022/02/13 01:55:06;;;;;;;9.73;3.90;;;;;;;5.01;49.10;101747.44;4987853;28;124111;-65
2022/02/13 01:57:33;;;;;;;9.63;3.90;;;;;;;5.01;49.01;101736.94;4989871;28;113236;-65
2022/02/13 02:00:01;;;;;;;9.13;4.22;;;;;;;5.00;49.14;101729.06;4987934;28;114379;-65
2022/02/13 02:02:38;;;;;;;9.70;3.83;;;;;;;5.02;49.26;101727.31;4990309;28;125307;-65
2022/02/13 02:05:05;;;;;;;9.15;3.75;;;;;;;5.02;49.35;101727.31;4987487;28;123611;-65
2022/02/13 02:07:32;;;;;;;10.70;3.90;;;;;;;5.01;49.36;101726.44;4987522;28;115212;-65
2022/02/13 02:09:59;;;;;;;9.82;3.60;;;;;;;5.01;49.03;101730.78;4986766;28;114849;-65
2022/02/13 02:12:27;;;;;;;8.68;3.65;;;;;;;5.01;49.16;101726.44;4988335;28;124184;-65
2022/02/13 02:14:55;;;;;;;11.18;4.00;;;;;;;5.00;49.42;101718.56;4989013;28;122908;-65
2022/02/13 02:17:22;;;;;;;8.98;3.75;;;;;;;5.00;49.42;101718.56;4987664;28;114114;-65
2022/02/13 02:19:49;;;;;;;7.65;3.45;;;;;;;5.00;49.45;101713.31;4989406;28;114583;-65
2022/02/13 02:22:17;;;;;;;7.88;3.60;;;;;;;4.99;49.17;101708.94;4987732;28;124193;-65
2022/02/13 02:24:46;;;;;;;11.57;3.90;;;;;;;4.98;49.20;101705.44;4986679;28;123902;-65
2022/02/13 02:27:14;;;;;;;7.45;3.40;;;;;;;4.98;49.27;101704.59;4987588;28;114298;-65
2022/02/13 02:29:41;;;;;;;7.03;3.72;;;;;;;4.98;49.31;101699.34;4988353;28;114625;-65
2022/02/13 02:32:12;;;;;;;6.78;3.58;;;;;;;4.98;49.39;101704.59;4986855;28;124771;-65
2022/02/13 02:34:41;;;;;;;8.70;3.88;;;;;;;4.97;49.54;101692.31;4986377;28;124509;-65
2022/02/13 02:37:09;;;;;;;8.18;3.95;;;;;;;4.97;49.54;101694.94;4988436;28;114924;-65
2022/02/13 02:39:37;;;;;;;8.40;3.60;;;;;;;4.97;49.27;101687.09;4987606;28;114350;-65
2022/02/13 02:42:05;;;;;;;8.60;3.83;;;;;;;4.98;49.36;101683.59;4988918;28;124482;-65
2022/02/13 02:44:32;;;;;;;7.80;3.60;;;;;;;4.98;49.44;101683.59;5005491;28;122743;-65
2022/02/13 02:47:00;;;;;;;7.57;3.80;;;;;;;4.99;49.52;101674.81;4990018;28;114248;-65
2022/02/13 02:49:27;;;;;;;9.15;3.30;;;;;;;5.00;49.50;101671.31;4988496;28;114184;-65
2022/02/13 02:51:54;;;;;;;7.32;3.60;;;;;;;5.01;49.28;101662.53;4988038;28;125117;-67
2022/02/13 02:54:22;;;;;;;8.32;4.20;;;;;;;5.03;49.56;101660.81;4992137;28;124514;-64
2022/02/13 02:56:49;;;;;;;7.05;3.47;;;;;;;5.04;49.64;101646.78;4988901;28;115758;-64
2022/02/13 02:59:16;;;;;;;7.30;3.28;;;;;;;5.05;49.38;101640.66;4993525;28;115752;-64
2022/02/13 03:01:43;;;;;;;6.55;3.50;;;;;;;5.07;49.56;101631.00;4989716;28;124437;-64
2022/02/13 03:04:10;;;;;;;9.38;3.97;;;;;;;5.07;49.64;101625.75;4990357;28;124064;-64
2022/02/13 03:06:38;;;;;;;8.05;3.85;;;;;;;5.08;49.45;101627.47;4990775;28;114739;-64
2022/02/13 03:09:05;;;;;;;7.13;3.45;;;;;;;5.09;49.66;101626.59;4990641;28;114107;-64
2022/02/13 03:11:35;;;;;;;10.77;3.30;;;;;;;5.10;49.52;101624.84;4992076;28;124702;-64
2022/02/13 03:14:03;;;;;;;6.63;3.38;;;;;;;5.10;49.41;101625.69;4991993;28;124191;-64
2022/02/13 03:16:30;;;;;;;6.97;3.33;;;;;;;5.10;49.52;101620.44;4988481;28;114573;-64
2022/02/13 03:18:57;;;;;;;7.22;3.15;;;;;;;5.11;49.81;101616.09;4986462;28;114014;-65
2022/02/13 03:21:24;;;;;;;9.05;3.60;;;;;;;5.12;49.58;101613.44;4990705;28;125318;-65
2022/02/13 03:23:51;;;;;;;7.50;3.40;;;;;;;5.13;49.51;101609.94;4992475;28;124150;-64
2022/02/13 03:26:23;;;;;;;7.05;3.53;;;;;;;5.15;49.59;101608.16;4990165;28;114331;-64
2022/02/13 03:28:51;;;;;;;6.22;3.17;;;;;;;5.15;49.40;101597.66;4990147;28;113574;-64
2022/02/13 03:31:21;;;;;;;7.45;3.15;;;;;;;5.16;49.54;101601.13;4989439;28;123781;-65
2022/02/13 03:33:48;;;;;;;7.43;3.33;;;;;;;5.16;49.70;101588.91;4992350;28;123767;-64
2022/02/13 03:36:15;;;;;;;6.18;2.92;;;;;;;5.17;49.87;101595.00;4992253;28;114220;-64
2022/02/13 03:38:43;;;;;;;7.15;3.40;;;;;;;5.16;49.52;101583.66;4990339;28;114216;-64
2022/02/13 03:41:10;;;;;;;5.72;3.30;;;;;;;5.18;49.39;101581.88;4991605;28;124524;-64
2022/02/13 03:43:37;;;;;;;5.32;3.17;;;;;;;5.17;49.33;101584.50;4991785;28;124328;-64
2022/02/13 03:46:07;;;;;;;5.43;3.17;;;;;;;5.16;49.62;101581.03;4982248;28;115654;-64
2022/02/13 03:48:34;;;;;;;7.53;3.55;;;;;;;5.16;49.56;101577.50;4971785;28;115187;-64
2022/02/13 03:51:01;;;;;;;7.38;3.60;;;;;;;5.16;49.28;101581.03;4969042;28;125325;-64
2022/02/13 03:53:28;;;;;;;7.78;3.38;;;;;;;5.16;49.15;101582.75;4987457;28;122826;-64
2022/02/13 03:55:58;;;;;;;7.32;3.30;;;;;;;5.16;49.40;101573.16;4970417;28;114311;-64
2022/02/13 03:58:25;;;;;;;6.95;3.53;;;;;;;5.17;49.44;101580.13;4970944;28;114212;-64
2022/02/13 04:00:52;;;;;;;7.40;3.30;;;;;;;5.18;49.34;101578.34;4968893;28;124062;-64
2022/02/13 04:03:19;;;;;;;8.77;3.83;;;;;;;5.17;49.43;101580.13;4971155;28;124620;-65
2022/02/13 04:05:47;;;;;;;8.65;3.53;;;;;;;5.15;49.40;101576.66;4969727;28;114228;-64
2022/02/13 04:08:14;;;;;;;8.70;3.60;;;;;;;5.13;49.24;101567.91;4972842;28;113795;-64
2022/02/13 04:10:41;;;;;;;6.28;2.80;;;;;;;5.11;49.32;101567.06;4968463;28;123880;-65
2022/02/13 04:13:08;;;;;;;6.55;3.50;;;;;;;5.10;49.78;101559.19;4971008;28;123727;-64
2022/02/13 04:15:35;;;;;;;6.15;3.38;;;;;;;5.09;49.43;101555.72;4972933;28;114785;-64
2022/02/13 04:18:13;;;;;;;6.20;2.83;;;;;;;5.07;49.29;101560.13;4969954;28;113898;-64
2022/02/13 04:20:42;;;;;;;8.52;3.63;;;;;;;5.07;49.37;101547.84;4970931;28;124039;-64
2022/02/13 04:23:09;;;;;;;6.43;3.60;;;;;;;5.05;49.38;101548.75;4970720;28;124254;-65
2022/02/13 04:25:37;;;;;;;7.80;3.72;;;;;;;5.04;49.32;101547.00;4970647;28;114083;-64
2022/02/13 04:28:05;;;;;;;6.22;3.38;;;;;;;5.03;49.66;101551.41;4970243;28;115234;-64
2022/02/13 04:30:32;;;;;;;6.95;3.50;;;;;;;5.01;49.28;101544.41;4968411;28;124156;-64
2022/02/13 04:32:59;;;;;;;9.63;3.60;;;;;;;5.00;49.46;101545.31;4971427;28;123965;-64
2022/02/13 04:35:30;;;;;;;7.55;3.35;;;;;;;4.98;49.62;101541.84;4968965;28;115122;-64
2022/02/13 04:37:57;;;;;;;6.18;3.25;;;;;;;4.94;49.60;101535.75;4969639;28;115472;-64
2022/02/13 04:40:25;;;;;;;8.68;3.40;;;;;;;4.94;49.45;101529.63;4968426;28;123899;-65
2022/02/13 04:42:52;;;;;;;7.70;3.30;;;;;;;4.92;49.69;101527.00;4970445;28;123872;-64
2022/02/13 04:45:19;;;;;;;8.45;3.28;;;;;;;4.90;49.37;101518.28;4972016;28;115223;-64
2022/02/13 04:47:48;;;;;;;9.70;3.58;;;;;;;4.86;49.42;101517.44;4971941;28;114482;-64
2022/02/13 04:50:21;;;;;;;5.97;3.30;;;;;;;4.85;49.56;101515.69;4968213;28;124377;-64
2022/02/13 04:52:50;;;;;;;8.13;3.95;;;;;;;4.83;49.58;101501.72;4970273;28;123930;-64
2022/02/13 04:55:17;;;;;;;4.57;3.03;;;;;;;4.81;49.58;101508.75;4987145;28;113071;-64
2022/02/13 04:57:46;;;;;;;8.70;3.58;;;;;;;4.79;49.66;101505.28;4969421;28;114335;-64
2022/02/13 05:00:15;;;;;;;6.32;3.25;;;;;;;4.78;49.59;101502.66;4985310;28;123417;-64
2022/02/13 05:02:43;;;;;;;8.38;3.65;;;;;;;4.77;49.59;101501.81;4969764;28;123739;-64
2022/02/13 05:05:11;;;;;;;8.43;3.40;;;;;;;4.77;49.93;101499.19;4969916;28;114649;-64
2022/02/13 05:07:39;;;;;;;5.55;3.20;;;;;;;4.78;49.71;101495.66;4969114;28;114273;-64
2022/02/13 05:10:07;;;;;;;7.05;3.20;;;;;;;4.77;49.63;101496.56;4969977;28;123909;-64
2022/02/13 05:12:34;;;;;;;6.55;3.60;;;;;;;4.78;49.77;101498.28;4971209;28;124562;-64
2022/02/13 05:15:03;;;;;;;6.18;3.38;;;;;;;4.78;49.89;101498.28;4971513;28;114127;-64
2022/02/13 05:17:34;;;;;;;6.93;3.13;;;;;;;4.79;49.92;101499.16;4970123;28;113828;-67
2022/02/13 05:20:03;;;;;;;6.75;3.35;;;;;;;4.79;49.88;101489.53;4969316;28;123895;-64
2022/02/13 05:22:30;;;;;;;7.20;3.50;;;;;;;4.80;49.78;101491.28;4969548;28;123749;-64
2022/02/13 05:24:58;;;;;;;7.22;3.53;;;;;;;4.80;49.69;101486.03;4970874;28;115129;-64
2022/02/13 05:27:25;;;;;;;10.63;3.88;;;;;;;4.80;49.81;101486.03;4986955;28;113861;-64
2022/02/13 05:29:52;;;;;;;7.32;3.42;;;;;;;4.81;49.92;101487.75;4967790;28;124682;-64
2022/02/13 05:32:19;;;;;;;7.13;3.30;;;;;;;4.82;49.80;101484.25;4969420;28;123728;-64
2022/02/13 05:34:46;;;;;;;8.30;3.50;;;;;;;4.83;50.06;101496.47;4968723;28;114876;-64
2022/02/13 05:37:14;;;;;;;7.70;3.22;;;;;;;4.84;49.79;101497.34;4986778;28;113473;-66
2022/02/13 05:39:42;;;;;;;7.78;3.63;;;;;;;4.85;49.86;101494.69;4985512;28;123069;-66
2022/02/13 05:42:10;;;;;;;9.00;3.45;;;;;;;4.86;49.88;101495.59;4968804;28;124934;-67
2022/02/13 05:44:38;;;;;;;8.65;3.60;;;;;;;4.86;49.95;101485.97;4969420;28;114443;-66
2022/02/13 05:47:06;;;;;;;10.10;3.60;;;;;;;4.87;49.96;101482.44;4986489;28;113025;-66
2022/02/13 05:49:33;;;;;;;6.43;3.50;;;;;;;4.88;49.74;101489.44;4985509;28;122824;-68
2022/02/13 05:52:01;;;;;;;7.60;3.20;;;;;;;4.87;49.84;101474.56;4968266;28;122870;-67
2022/02/13 05:54:29;;;;;;;7.03;3.53;;;;;;;4.89;49.94;101469.28;4968644;28;114205;-67
2022/02/13 05:56:56;;;;;;;5.72;3.25;;;;;;;4.90;49.87;101464.91;4969016;28;113715;-67
2022/02/13 05:59:23;;;;;;;6.82;3.20;;;;;;;4.88;49.85;101468.44;4985932;28;123015;-67
2022/02/13 06:01:53;;;;;;;8.00;3.38;;;;;;;4.88;49.99;101468.44;4983671;28;124344;-67
2022/02/13 06:04:21;;;;;;;7.97;3.50;;;;;;;4.87;49.73;101469.31;4970303;28;114146;-67
2022/02/13 06:06:52;;;;;;;9.10;3.47;;;;;;;4.86;50.02;101464.97;4986279;28;113790;-67
2022/02/13 06:09:21;;;;;;;8.07;3.50;;;;;;;4.85;50.12;101468.47;4968486;28;124088;-67
2022/02/13 06:11:49;;;;;;;8.07;3.42;;;;;;;4.85;49.97;101457.97;4984992;28;122825;-67
2022/02/13 06:14:16;;;;;;;7.60;3.20;;;;;;;4.86;50.11;101461.47;4967795;28;115826;-67
2022/02/13 06:16:44;;;;;;;7.00;3.30;;;;;;;4.86;49.94;101443.97;4970196;28;114928;-67
2022/02/13 06:19:11;;;;;;;6.07;3.35;;;;;;;4.86;49.97;101438.72;4985378;28;123254;-67
2022/02/13 06:21:38;;;;;;;5.35;3.17;;;;;;;4.86;50.01;101438.72;4965617;28;123963;-67
2022/02/13 06:24:05;;;;;;;7.30;3.50;;;;;;;4.87;50.02;101440.44;4970901;28;114096;-67
2022/02/13 06:26:35;;;;;;;7.93;3.25;;;;;;;4.86;50.02;101428.22;4967878;28;114107;-67
2022/02/13 06:29:04;;;;;;;7.88;3.22;;;;;;;4.85;50.01;101426.47;4974179;28;123893;-67
2022/02/13 06:31:31;;;;;;;8.55;3.45;;;;;;;4.84;50.11;101424.75;4972784;28;124655;-66
2022/02/13 06:33:58;;;;;;;10.50;3.42;;;;;;;4.83;49.96;101423.00;4973842;28;114897;-66
2022/02/13 06:36:25;;;;;;;6.10;3.30;;;;;;;4.81;49.91;101432.66;4971321;28;114098;-66
2022/02/13 06:38:52;;;;;;;7.10;3.55;;;;;;;4.79;50.13;101426.53;4969655;28;123931;-66
2022/02/13 06:41:20;;;;;;;5.75;3.28;;;;;;;4.77;50.02;101423.06;4970874;28;123877;-66
2022/02/13 06:43:47;;;;;;;9.02;3.53;;;;;;;4.75;50.12;101419.59;4973045;28;114979;-66
2022/02/13 06:46:14;;;;;;;8.38;3.58;;;;;;;4.75;49.98;101422.22;4970538;28;114032;-66
2022/02/13 06:48:41;;;;;;;5.95;3.22;;;;;;;4.73;50.05;101410.88;4973288;28;123797;-66
2022/02/13 06:51:10;;;;;;;10.35;4.10;;;;;;;4.71;50.00;101407.41;4970999;28;123984;-66
2022/02/13 06:53:37;;;;;;;8.57;4.00;;;;;;;4.70;50.04;101416.16;4973341;28;114825;-66
2022/02/13 06:56:05;;;;;;;7.85;3.85;;;;;;;4.69;50.23;101417.06;4971639;28;114483;-66
2022/02/13 06:58:32;;;;;;;6.10;3.05;;;;;;;4.68;50.03;101407.44;4972182;28;124834;-66
2022/02/13 07:01:00;;;;;;;7.25;3.38;;;;;;;4.66;50.20;101409.22;4972720;28;124404;-66
2022/02/13 07:03:27;;;;;;;7.50;3.47;;;;;;;4.66;50.28;101403.97;4972284;28;115471;-66
2022/02/13 07:05:55;;;;;;;7.07;3.38;;;;;;;4.65;50.25;101404.84;4989243;28;114340;-66
2022/02/13 07:08:22;;;;;;;6.40;3.80;;;;;;;4.66;50.47;101394.34;4972185;28;124058;-66
2022/02/13 07:10:49;;;;;;;8.95;3.58;;;;;;;4.66;50.19;101396.09;4971881;28;124008;-66
2022/02/13 07:13:16;;;;;;;9.05;3.15;;;;;;;4.66;50.31;101393.47;4972993;28;115174;-66
2022/02/13 07:15:44;;;;;;;5.72;3.40;;;;;;;4.67;50.43;101400.44;4973725;28;114084;-68
2022/02/13 07:18:11;;;;;;;8.02;3.63;;;;;;;4.68;50.53;101396.94;4971284;28;124012;-66
2022/02/13 07:20:39;;;;;;;6.50;3.50;;;;;;;4.70;50.57;101389.91;4987872;28;123280;-66
2022/02/13 07:23:07;;;;;;;6.38;3.60;;;;;;;4.72;50.40;101387.28;4972304;28;114356;-66
2022/02/13 07:25:35;;;;;;;8.38;3.95;;;;;;;4.75;50.63;101377.63;4973077;28;114268;-66
2022/02/13 07:28:58;;;;;;;6.05;3.50;;;;;;;4.78;50.54;101382.81;4972788;28;124026;-66
2022/02/13 07:30:49;;;;;;;7.80;3.72;;;;;;;4.82;50.58;101389.78;4972115;28;123639;-67
2022/02/13 07:33:16;;;;;;;6.53;3.15;;;;;;;4.85;50.70;101384.47;4988502;28;113123;-66
2022/02/13 07:35:44;;;;;;;6.60;3.67;;;;;;;4.90;50.65;101387.06;4972706;28;114026;-66
2022/02/13 07:38:11;;;;;;;7.32;3.67;;;;;;;4.94;50.61;101393.16;4972763;28;123853;-66
2022/02/13 07:40:38;;;;;;;6.38;3.50;;;;;;;4.99;50.63;101401.81;4972197;28;124175;-66
2022/02/13 07:43:05;;;;;;;7.68;3.45;;;;;;;5.03;50.68;101387.78;4972081;28;114602;-66
2022/02/13 07:45:33;;;;;;;8.23;3.72;;;;;;;5.09;50.63;101392.06;4970788;28;114669;-67
2022/02/13 07:48:00;;;;;;;7.75;3.55;;;;;;;5.14;50.59;101391.13;4971713;28;124060;-66
2022/02/13 07:50:27;;;;;;;5.60;3.47;;;;;;;5.20;50.76;101391.03;4969496;28;123795;-66
2022/02/13 07:52:55;;;;;;;9.30;3.95;;;;;;;5.25;50.87;101386.59;4987655;28;114247;-66
2022/02/13 07:55:22;;;;;;;5.70;3.45;;;;;;;5.32;50.87;101383.88;4970807;28;115038;-64
2022/02/13 07:57:49;;;;;;;6.15;3.17;;;;;;;5.37;50.85;101388.16;4970630;28;124106;-64
2022/02/13 08:00:16;;;;;;;6.63;3.40;;;;;;;5.43;50.89;101381.94;4970640;28;124241;-64
2022/02/13 08:02:43;;;;;;;5.85;3.10;;;;;;;5.51;50.64;101389.72;4986653;28;114226;-64
2022/02/13 08:05:13;;;;;;;6.68;3.45;;;;;;;5.56;50.90;101383.50;4970236;28;114176;-64
2022/02/13 08:07:45;;;;;;;6.35;3.47;;;;;;;5.62;50.84;101375.50;4969822;28;124125;-64
2022/02/13 08:10:15;;;;;;;7.78;3.60;;;;;;;5.69;50.86;101375.41;4987529;28;122899;-64
2022/02/13 08:12:42;;;;;;;6.00;3.20;;;;;;;5.75;51.02;101378.81;4971161;28;114476;-64
2022/02/13 08:15:10;;;;;;;6.72;3.80;;;;;;;5.83;50.62;101370.78;4971729;28;113958;-64
2022/02/13 08:17:37;;;;;;;7.18;3.35;;;;;;;5.89;50.64;101381.19;4969450;28;124865;-64
2022/02/13 08:20:07;;;;;;;6.60;3.47;;;;;;;5.96;50.89;101382.88;4971519;28;124912;-64
2022/02/13 08:22:35;;;;;;;8.27;3.17;;;;;;;6.03;50.67;101379.25;4971228;28;113129;-64
2022/02/13 08:25:09;;;;;;;6.93;3.70;;;;;;;6.11;50.84;101375.63;4984249;28;113891;-64
2022/02/13 08:27:36;;;;;;;6.53;3.58;;;;;;;6.17;50.75;101386.88;4971280;28;124763;-64
2022/02/13 08:30:05;;;;;;;6.05;3.47;;;;;;;6.23;50.74;101375.38;4970890;28;124119;-64
2022/02/13 08:32:32;;;;;;;7.10;3.60;;;;;;;6.28;50.53;101378.78;4972171;28;114676;-64
2022/02/13 08:35:00;;;;;;;7.60;3.53;;;;;;;6.34;50.28;101373.41;4972952;28;113896;-64
2022/02/13 08:37:27;;;;;;;5.80;3.53;;;;;;;6.41;50.44;101374.19;4970382;28;124586;-64
2022/02/13 08:39:54;;;;;;;5.28;3.50;;;;;;;6.48;50.62;101369.66;4986332;28;122845;-66
2022/02/13 08:42:21;;;;;;;7.53;3.85;;;;;;;6.55;50.39;101373.91;4986868;28;114438;-66
2022/02/13 08:44:48;;;;;;;6.28;3.28;;;;;;;6.62;50.68;101367.63;4969800;28;114741;-67
2022/02/13 08:47:16;;;;;;;5.18;3.13;;;;;;;6.71;50.63;101367.44;4970478;28;124226;-66
2022/02/13 08:49:44;;;;;;;4.85;2.97;;;;;;;6.79;50.30;101354.97;4968160;28;124725;-67
2022/02/13 08:52:11;;;;;;;5.60;3.40;;;;;;;6.88;50.33;101351.28;4969945;28;114074;-66
2022/02/13 08:54:39;;;;;;;8.07;3.75;;;;;;;6.96;50.40;101351.13;4971094;28;113910;-66
2022/02/13 08:57:06;;;;;;;8.15;3.67;;;;;;;7.03;50.42;101352.72;4971562;28;124724;-66
2022/02/13 08:59:33;;;;;;;6.85;3.40;;;;;;;7.09;50.06;101347.31;4971911;28;124238;-66
2022/02/13 09:02:01;;;;;;;6.50;3.33;;;;;;;7.17;50.07;101339.22;4971335;28;115003;-66
2022/02/13 09:04:30;;;;;;;7.35;3.50;;;;;;;7.24;49.96;101326.78;4968975;28;114245;-66
2022/02/13 09:07:00;;;;;;;5.68;3.22;;;;;;;7.31;50.02;101331.00;4983649;28;124056;-66
2022/02/13 09:09:29;;;;;;;6.20;3.50;;;;;;;7.37;50.05;101322.97;4969026;28;124015;-66
2022/02/13 09:11:56;;;;;;;6.90;3.60;;;;;;;7.44;49.87;101327.19;4985996;28;114855;-66
2022/02/13 09:14:24;;;;;;;9.20;4.20;;;;;;;7.51;49.84;101328.75;4971926;28;113921;-66
2022/02/13 09:16:52;;;;;;;6.20;3.58;;;;;;;7.58;49.75;101313.66;4968843;28;124040;-66
2022/02/13 09:19:20;;;;;;;6.30;3.40;;;;;;;7.65;49.95;101309.09;4969571;28;124919;-66
2022/02/13 09:21:51;;;;;;;6.53;3.35;;;;;;;7.70;49.87;101299.28;4969906;28;114330;-66
2022/02/13 09:24:19;;;;;;;6.05;3.20;;;;;;;7.75;49.80;101294.78;4969411;28;114033;-64
2022/02/13 09:26:46;;;;;;;7.32;3.80;;;;;;;7.81;49.46;101299.88;4968556;28;123944;-64
2022/02/13 09:29:14;;;;;;;5.78;3.60;;;;;;;7.86;49.43;101303.28;4968716;28;124490;-64
2022/02/13 09:31:41;;;;;;;6.07;3.28;;;;;;;7.90;49.72;101294.38;4985640;28;114528;-63
2022/02/13 09:34:12;;;;;;;7.15;3.53;;;;;;;7.95;49.84;101291.63;4972186;28;114622;-63
2022/02/13 09:36:40;;;;;;;7.03;3.60;;;;;;;8.01;49.50;101285.31;4986664;28;123583;-63
2022/02/13 09:39:07;;;;;;;6.00;3.35;;;;;;;8.06;49.60;101278.13;4971001;28;123918;-64
2022/02/13 09:41:37;;;;;;;7.10;3.55;;;;;;;8.13;49.65;101279.69;4971035;28;114126;-64
2022/02/13 09:44:04;;;;;;;5.32;3.40;;;;;;;8.18;49.40;101272.50;4971670;28;113799;-64
2022/02/13 09:46:31;;;;;;;6.50;3.55;;;;;;;8.26;49.47;101265.22;4983453;28;123735;-64
2022/02/13 09:48:59;;;;;;;4.68;3.03;;;;;;;8.32;49.24;101270.34;4970404;28;124249;-63
2022/02/13 09:51:29;;;;;;;6.38;3.67;;;;;;;8.38;49.35;101262.25;4970156;28;114264;-63
2022/02/13 09:53:57;;;;;;;6.53;3.63;;;;;;;8.47;49.17;101265.56;4971024;28;114690;-63
2022/02/13 09:56:24;;;;;;;5.53;3.28;;;;;;;8.56;49.42;101260.00;4968291;28;124394;-63
2022/02/13 09:58:53;;;;;;;6.80;3.35;;;;;;;8.65;49.41;101265.00;4969240;28;123851;-63
2022/02/13 10:01:37;;;;;;;5.45;3.20;;;;;;;8.75;49.37;101258.53;4969378;28;114400;-63
2022/02/13 10:04:06;;;;;;;7.03;3.75;;;;;;;8.85;49.18;101242.41;4989824;28;113566;-63
2022/02/13 10:06:37;;;;;;;4.95;2.90;;;;;;;8.93;49.59;101243.03;4974191;28;124191;-63
2022/02/13 10:09:06;;;;;;;6.47;3.28;;;;;;;9.02;49.04;101232.16;4971777;28;123893;-63
2022/02/13 10:11:35;;;;;;;6.50;3.47;;;;;;;9.13;49.40;101237.94;4972591;28;115350;-63
2022/02/13 10:14:12;;;;;;;6.57;3.35;;;;;;;9.25;49.26;101235.81;4975158;28;114048;-64
2022/02/13 10:16:45;;;;;;;5.75;3.00;;;;;;;9.35;49.23;101224.03;4989326;28;124214;-63
2022/02/13 10:19:20;;;;;;;6.07;3.10;;;;;;;9.43;48.86;101224.63;4971589;28;125371;-63
2022/02/13 10:21:51;;;;;;;6.88;3.25;;;;;;;9.53;48.94;101226.06;4971625;28;115403;-64
2022/02/13 10:24:37;;;;;;;7.78;3.70;;;;;;;9.63;48.88;101220.44;4973287;28;114795;-63
2022/02/13 10:27:15;;;;;;;5.20;3.10;;;;;;;9.71;48.71;101210.47;4971321;28;124229;-64
2022/02/13 10:29:45;;;;;;;5.13;3.05;;;;;;;9.79;48.95;101208.38;4971282;28;123790;-63
2022/02/13 10:32:14;;;;;;;5.32;2.90;;;;;;;9.86;48.79;101207.25;4989458;28;113170;-63
2022/02/13 10:35:05;;;;;;;6.68;3.25;;;;;;;9.94;48.76;101214.91;4971922;28;114688;-63
2022/02/13 10:37:42;;;;;;;5.43;3.17;;;;;;;10.03;48.83;101197.84;4973914;28;124077;-63
2022/02/13 10:40:12;;;;;;;5.63;3.00;;;;;;;10.12;48.82;101192.22;4970919;28;124722;-64
2022/02/13 10:42:39;;;;;;;5.93;3.42;;;;;;;10.21;49.02;101190.97;4972638;28;114042;-64
2022/02/13 10:45:17;;;;;;;5.45;2.67;;;;;;;10.28;48.80;101190.72;4990072;28;112853;-63
2022/02/13 10:47:46;;;;;;;6.50;3.38;;;;;;;10.37;48.59;101186.88;4970733;28;124061;-63
2022/02/13 10:50:17;;;;;;;5.30;3.13;;;;;;;10.46;48.71;101185.66;4973056;28;124577;-65
2022/02/13 10:52:50;;;;;;;5.65;3.15;;;;;;;10.57;48.60;101183.44;4972651;28;114595;-63
2022/02/13 10:55:18;;;;;;;5.97;3.40;;;;;;;10.68;48.73;101175.94;4971317;28;113857;-63
2022/02/13 10:57:45;;;;;;;4.97;3.10;;;;;;;10.78;48.37;101178.22;4970963;28;124755;-63
2022/02/13 11:00:16;;;;;;;9.23;3.63;;;;;;;10.87;48.28;101181.34;4972406;28;123844;-63
2022/02/13 11:02:48;;;;;;;5.25;3.00;;;;;;;10.95;48.31;101183.69;4973904;28;114284;-63
2022/02/13 11:05:21;;;;;;;7.05;3.40;;;;;;;11.01;48.02;101178.13;4987300;28;114794;-63
2022/02/13 11:07:50;;;;;;;5.13;3.40;;;;;;;11.09;48.17;101180.44;4972003;28;124616;-65
2022/02/13 11:10:23;;;;;;;5.75;3.22;;;;;;;11.13;47.88;101166.13;4970048;28;124485;-63
2022/02/13 11:12:53;;;;;;;7.72;4.05;;;;;;;11.17;47.93;101166.88;4971523;28;115163;-63
2022/02/13 11:15:26;;;;;;;5.60;3.50;;;;;;;11.22;48.00;101164.91;4973850;28;115265;-66
2022/02/13 11:18:01;;;;;;;6.03;3.60;;;;;;;11.28;47.78;101159.31;4970730;28;123881;-63
2022/02/13 11:20:29;;;;;;;;;;;;;;;11.32;48.02;101158.28;4987774;28;124338;-63
2022/02/13 11:23:20;;;;;;;6.57;3.67;;;;;;;11.41;48.14;101144.59;4972847;28;114394;-63
2022/02/13 11:25:57;;;;;;;5.78;3.50;;;;;;;11.48;48.07;101129.28;4973706;28;114190;-63
2022/02/13 11:28:45;;;;;;;6.53;3.60;;;;;;;11.55;48.02;101119.28;4971436;28;124021;-63
2022/02/13 11:31:28;;;;;;;6.78;3.50;;;;;;;11.60;47.93;101106.66;4972908;28;124336;-63